Terminal Aerodrome Forecast
Issued by NWS

Home | Current Version | Previous Version | Text Only | Print | Product List | Glossary On
Versions: 1 2 3 4 5 6 7 8 9 10 11 12 13
000
FTUS45 KLKN 191700
TAFTPH
TAF
KTPH 191726Z 1918/2018 20009KT P6SM SCT250
     FM191900 24010G18KT P6SM SCT080 SCT250
     FM200200 27008KT P6SM FEW100 SCT250
     FM200600 35009KT P6SM FEW100 SCT250=

USA.gov is the U.S. government's official web portal to all federal, state and local government web resources and services.